Terminal Aerodrome Forecast
Issued by NWS

Current Version | Previous Version | Text Only | Print | Product List | Glossary On
Versions: 1 2 3 4 5 6 7 8 9 10 11 12 13 14 15 16 17 18 19
000 FTUS41 KILN 211100 TAFLUK TAF KLUK 211130Z 2112/2212 32008KT P6SM BKN060 FM211500 32010KT P6SM OVC035 FM211700 33010G18KT P6SM OVC035 FM212200 34005KT P6SM OVC035 FM220600 36003KT P6SM OVC025=

USA.gov is the U.S. government's official web portal to all federal, state and local government web resources and services.